Time;durP1;ratioP1;P1;durP2;ratioP2;P2;SDS_P1;SDS_P2;PMS_P1;PMS_P2;Temp;Humidity;BMP_temperature;BMP_pressure;BME280_temperature;BME280_humidity;BME280_pressure;Samples;Min_cycle;Max_cycle;Signal;HPM_P1;HPM_P2
2022/05/23 00:00:22;;;;;;;4.40;2.33;;;13.70;99.90;;;;;;4945137;28;20057;-79
2022/05/23 00:02:48;;;;;;;3.33;2.15;;;13.80;99.90;;;;;;4961539;28;20097;-79
2022/05/23 00:05:22;;;;;;;4.40;2.33;;;13.70;99.90;;;;;;4977257;28;20113;-79
2022/05/23 00:07:49;;;;;;;4.32;2.22;;;13.70;99.90;;;;;;4975819;28;20053;-79
2022/05/23 00:10:17;;;;;;;2.78;2.30;;;13.70;99.90;;;;;;4975767;28;20058;-79
2022/05/23 00:12:45;;;;;;;3.25;2.33;;;13.30;99.90;;;;;;4976553;28;20483;-79
2022/05/23 00:15:13;;;;;;;4.00;2.20;;;13.60;99.90;;;;;;4977197;28;20465;-79
2022/05/23 00:17:41;;;;;;;2.92;2.20;;;13.70;99.90;;;;;;4960982;28;20101;-79
2022/05/23 00:20:10;;;;;;;3.72;2.50;;;13.60;99.90;;;;;;4977106;28;20050;-79
2022/05/23 00:22:37;;;;;;;3.30;2.58;;;13.60;99.90;;;;;;4977426;28;20049;-79
2022/05/23 00:25:04;;;;;;;3.17;2.20;;;13.60;99.90;;;;;;4960131;28;20448;-79
2022/05/23 00:27:37;;;;;;;3.45;2.20;;;13.50;99.90;;;;;;4976722;28;20206;-79
2022/05/23 00:30:08;;;;;;;3.53;2.22;;;13.40;99.90;;;;;;4946418;28;20043;-79
2022/05/23 00:35:24;;;;;;;2.72;1.98;;;12.90;99.90;;;;;;4976489;28;20062;-79
2022/05/23 00:37:59;;;;;;;3.28;1.92;;;13.40;99.90;;;;;;4976244;28;20046;-79
2022/05/23 00:40:32;;;;;;;3.03;1.80;;;13.40;99.90;;;;;;4960290;28;20050;-80
2022/05/23 00:43:15;;;;;;;3.17;2.25;;;13.40;99.90;;;;;;4975113;28;20046;-79
2022/05/23 00:45:55;;;;;;;4.35;2.40;;;13.40;99.90;;;;;;4959915;28;20055;-79
2022/05/23 00:48:30;;;;;;;2.97;1.83;;;13.30;99.90;;;;;;4975499;28;20433;-79
2022/05/23 00:51:03;;;;;;;3.95;2.35;;;13.30;99.90;;;;;;4976607;28;20046;-78
2022/05/23 00:53:54;;;;;;;3.35;2.53;;;13.30;99.90;;;;;;4975957;28;20051;-79
2022/05/23 00:56:50;;;;;;;2.80;2.03;;;13.30;99.90;;;;;;4977409;28;20078;-79
2022/05/23 00:59:22;;;;;;;4.38;2.22;;;13.20;99.90;;;;;;4974724;28;20081;-79
2022/05/23 01:01:47;;;;;;;4.22;2.30;;;13.20;99.90;;;;;;4975805;28;20054;-79
2022/05/23 01:04:14;;;;;;;2.55;1.95;;;13.20;99.90;;;;;;4959345;28;20066;-79
2022/05/23 01:06:40;;;;;;;4.38;2.28;;;12.80;99.90;;;;;;4991395;28;20098;-79
2022/05/23 01:09:08;;;;;;;3.90;2.30;;;13.20;99.90;;;;;;4959572;28;20039;-79
2022/05/23 01:11:36;;;;;;;5.05;2.30;;;13.20;99.90;;;;;;4975101;28;20108;-78
2022/05/23 01:14:05;;;;;;;3.95;2.20;;;13.10;99.90;;;;;;4973154;28;20042;-78
2022/05/23 01:16:34;;;;;;;3.75;2.00;;;13.10;99.90;;;;;;4975875;28;20097;-79
2022/05/23 01:19:08;;;;;;;3.85;2.15;;;13.00;99.90;;;;;;4975427;28;20046;-79
2022/05/23 01:21:52;;;;;;;3.53;2.10;;;13.00;99.90;;;;;;4944684;28;20490;-79
2022/05/23 01:24:41;;;;;;;5.15;2.22;;;13.00;99.90;;;;;;4943892;28;20411;-79
2022/05/23 01:27:13;;;;;;;3.00;2.13;;;13.00;99.90;;;;;;4974980;28;20050;-79
2022/05/23 01:29:47;;;;;;;3.78;1.90;;;13.00;99.90;;;;;;4973998;28;20054;-79
2022/05/23 01:32:16;;;;;;;4.68;2.17;;;13.00;99.90;;;;;;4976886;28;20364;-79
2022/05/23 01:34:45;;;;;;;4.43;2.35;;;13.00;99.90;;;;;;4973910;28;20054;-79
2022/05/23 01:37:30;;;;;;;3.35;2.28;;;12.70;99.90;;;;;;4946511;28;20061;-79
2022/05/23 01:40:05;;;;;;;4.05;1.98;;;13.00;99.90;;;;;;4976959;28;20043;-79
2022/05/23 01:42:35;;;;;;;7.17;2.13;;;13.00;99.90;;;;;;4976909;28;20534;-79
2022/05/23 01:45:04;;;;;;;3.03;2.03;;;13.00;99.90;;;;;;4977577;28;20108;-79
2022/05/23 01:47:30;;;;;;;3.67;2.80;;;12.90;99.90;;;;;;4958788;28;20051;-78
2022/05/23 01:49:59;;;;;;;3.88;2.17;;;12.90;99.90;;;;;;4975098;28;20129;-79
2022/05/23 01:52:29;;;;;;;4.55;2.60;;;12.90;99.90;;;;;;4974367;28;20400;-79
2022/05/23 01:54:58;;;;;;;5.13;2.92;;;12.90;99.90;;;;;;4958637;28;20053;-79
2022/05/23 01:57:26;;;;;;;3.88;2.47;;;12.90;99.90;;;;;;4958577;28;20145;-79
2022/05/23 02:02:59;;;;;;;3.85;2.35;;;12.90;99.90;;;;;;4974706;28;20467;-79
2022/05/23 02:05:33;;;;;;;4.72;2.53;;;12.80;99.90;;;;;;5160395;27;20191;-74
2022/05/23 02:08:00;;;;;;;4.22;2.70;;;12.80;99.90;;;;;;5120544;28;20050;-74
2022/05/23 02:10:26;;;;;;;3.72;2.50;;;12.80;99.90;;;;;;5120013;28;20040;-74
2022/05/23 02:12:52;;;;;;;4.43;2.90;;;12.80;99.90;;;;;;5039988;23;20411;-73
2022/05/23 02:15:19;;;;;;;4.80;2.72;;;12.80;99.90;;;;;;5030269;28;20054;-74
2022/05/23 02:17:45;;;;;;;3.58;2.70;;;12.80;99.90;;;;;;5002505;28;20108;-74
2022/05/23 02:20:12;;;;;;;4.22;2.75;;;12.80;99.90;;;;;;5014972;28;20575;-74
2022/05/23 02:22:38;;;;;;;6.68;3.00;;;12.80;99.90;;;;;;5018270;28;20069;-74
2022/05/23 02:25:05;;;;;;;4.63;2.50;;;12.80;99.90;;;;;;5009964;28;20054;-73
2022/05/23 02:27:31;;;;;;;4.35;2.55;;;12.90;99.90;;;;;;5017697;28;20057;-74
2022/05/23 02:29:58;;;;;;;4.28;2.60;;;12.90;99.90;;;;;;5017967;28;20049;-74
2022/05/23 02:32:24;;;;;;;3.38;2.88;;;12.90;99.90;;;;;;5017089;28;20080;-74
2022/05/23 02:34:50;;;;;;;4.32;2.90;;;12.90;99.90;;;;;;5011315;28;20042;-74
2022/05/23 02:37:16;;;;;;;4.10;3.10;;;13.00;99.90;;;;;;5013262;28;20046;-73
2022/05/23 02:39:42;;;;;;;5.70;2.70;;;13.00;99.90;;;;;;4998347;28;20074;-74
2022/05/23 02:42:08;;;;;;;3.30;3.00;;;13.00;99.90;;;;;;5029643;28;20051;-73
2022/05/23 02:44:35;;;;;;;3.95;2.95;;;13.00;99.90;;;;;;4997700;28;20050;-73
2022/05/23 02:47:02;;;;;;;4.07;2.80;;;13.00;99.90;;;;;;5007528;28;20050;-74
2022/05/23 02:49:28;;;;;;;21.75;3.80;;;13.00;99.90;;;;;;4999674;28;20038;-73
2022/05/23 02:51:54;;;;;;;4.60;3.03;;;13.00;99.90;;;;;;5017908;28;20054;-73
2022/05/23 02:54:20;;;;;;;3.83;3.05;;;13.00;99.90;;;;;;5000546;28;20046;-73
2022/05/23 02:56:46;;;;;;;3.90;2.97;;;13.00;99.90;;;;;;5017404;28;20047;-73
2022/05/23 02:59:12;;;;;;;5.30;3.30;;;13.00;99.90;;;;;;4999658;28;20045;-73
2022/05/23 03:03:01;;;;;;;3.45;3.00;;;13.00;99.90;;;;;;5006963;28;20042;-73
2022/05/23 03:04:24;;;;;;;5.50;3.00;;;13.00;99.90;;;;;;5002147;28;20068;-74
2022/05/23 03:06:50;;;;;;;6.18;3.03;;;12.90;99.90;;;;;;5015903;28;20112;-74
2022/05/23 03:09:16;;;;;;;4.25;3.03;;;13.00;99.90;;;;;;5017157;28;20129;-73
2022/05/23 03:11:42;;;;;;;5.00;3.25;;;13.00;99.90;;;;;;5015049;28;20136;-73
2022/05/23 03:14:07;;;;;;;3.20;2.72;;;13.00;99.90;;;;;;5016397;28;20054;-74
2022/05/23 03:16:33;;;;;;;6.72;3.30;;;13.00;99.90;;;;;;5001075;28;20060;-74
2022/05/23 03:18:59;;;;;;;4.38;3.10;;;12.90;99.90;;;;;;4972346;28;20034;-74
2022/05/23 03:26:58;;;;;;;3.63;3.00;;;12.90;99.90;;;;;;4993613;28;20055;-74
2022/05/23 03:29:25;;;;;;;5.05;3.33;;;12.90;99.90;;;;;;4993017;28;20055;-75
2022/05/23 03:31:50;;;;;;;4.85;3.08;;;12.90;99.90;;;;;;5000741;28;20105;-74
2022/05/23 03:34:16;;;;;;;3.97;3.35;;;12.90;99.90;;;;;;5017417;28;20046;-75
2022/05/23 03:36:42;;;;;;;3.88;2.90;;;13.00;99.90;;;;;;5002011;28;20097;-74
2022/05/23 03:39:08;;;;;;;4.47;3.35;;;12.90;99.90;;;;;;5003608;28;20113;-74
2022/05/23 03:41:34;;;;;;;4.95;3.45;;;13.00;99.90;;;;;;4993327;28;20092;-74
2022/05/23 03:44:00;;;;;;;4.90;3.30;;;13.00;99.90;;;;;;5002562;28;20133;-75
2022/05/23 03:46:25;;;;;;;5.60;3.55;;;13.00;99.90;;;;;;5002426;28;20077;-76
2022/05/23 03:48:51;;;;;;;5.22;3.20;;;13.10;99.90;;;;;;5001606;28;20065;-75
2022/05/23 03:51:17;;;;;;;4.30;3.40;;;13.10;99.90;;;;;;4986494;28;20046;-74
2022/05/23 03:53:42;;;;;;;4.90;2.90;;;13.10;99.90;;;;;;5002103;28;20480;-75
2022/05/23 03:56:08;;;;;;;5.57;3.10;;;13.20;99.90;;;;;;5003260;28;20105;-74
2022/05/23 03:58:34;;;;;;;5.00;3.38;;;13.20;99.90;;;;;;5001812;28;20054;-75
2022/05/23 04:01:12;;;;;;;5.78;3.42;;;13.20;99.90;;;;;;4979242;28;20038;-76
2022/05/23 04:03:38;;;;;;;4.10;3.03;;;13.20;99.90;;;;;;4988398;28;20043;-75
2022/05/23 04:06:04;;;;;;;5.75;3.38;;;13.30;99.90;;;;;;5002723;28;20065;-75
2022/05/23 04:08:30;;;;;;;4.15;3.38;;;13.30;99.90;;;;;;4988067;28;20051;-75
2022/05/23 04:10:57;;;;;;;4.72;3.03;;;13.30;99.90;;;;;;5014905;28;20047;-76
2022/05/23 04:13:24;;;;;;;4.00;2.90;;;13.30;99.90;;;;;;5015436;28;20059;-75
2022/05/23 04:15:50;;;;;;;4.38;3.30;;;13.40;99.90;;;;;;5014755;28;20047;-76
2022/05/23 04:18:16;;;;;;;4.25;3.15;;;13.40;99.90;;;;;;5015833;28;20042;-75
2022/05/23 04:20:43;;;;;;;4.53;3.30;;;13.40;99.90;;;;;;4966741;28;20061;-77
2022/05/23 04:23:09;;;;;;;5.00;3.25;;;13.40;99.90;;;;;;5002420;28;20038;-75
2022/05/23 04:25:40;;;;;;;5.07;3.60;;;13.40;99.90;;;;;;5001532;28;20056;-75
2022/05/23 04:28:05;;;;;;;5.68;3.75;;;13.40;99.90;;;;;;5000802;28;20042;-75
2022/05/23 04:30:31;;;;;;;7.25;3.88;;;13.40;99.90;;;;;;4979255;28;20052;-77
2022/05/23 04:35:41;;;;;;;6.07;3.63;;;13.40;99.90;;;;;;5015505;28;20153;-76
2022/05/23 04:38:07;;;;;;;4.53;3.53;;;13.30;99.90;;;;;;4982430;28;20074;-75
2022/05/23 04:40:34;;;;;;;8.13;3.75;;;13.30;99.90;;;;;;5017228;28;20114;-77
2022/05/23 04:43:00;;;;;;;5.95;3.67;;;13.30;99.90;;;;;;4987492;28;20042;-76
2022/05/23 04:45:26;;;;;;;5.75;3.40;;;13.30;99.90;;;;;;4995430;28;20054;-76
2022/05/23 04:50:36;;;;;;;5.32;3.63;;;13.30;99.90;;;;;;5014471;28;20133;-76
2022/05/23 04:53:02;;;;;;;5.45;3.47;;;13.30;99.90;;;;;;4999749;28;20077;-76
2022/05/23 04:55:28;;;;;;;4.55;3.50;;;13.40;99.90;;;;;;4985121;28;20395;-78
2022/05/23 04:57:58;;;;;;;4.50;3.33;;;13.50;99.90;;;;;;5001056;28;20053;-75
2022/05/23 05:00:24;;;;;;;4.15;3.75;;;13.60;99.90;;;;;;5001589;28;20054;-75
2022/05/23 05:02:51;;;;;;;5.93;3.35;;;13.70;99.90;;;;;;5000762;28;20521;-75
2022/05/23 05:05:18;;;;;;;6.18;3.97;;;13.80;99.90;;;;;;4991668;28;20038;-75
2022/05/23 05:07:44;;;;;;;4.05;3.58;;;13.90;99.90;;;;;;5013638;28;20055;-77
2022/05/23 05:10:10;;;;;;;7.35;3.60;;;13.90;99.90;;;;;;4998746;28;20097;-75
2022/05/23 05:12:36;;;;;;;4.78;3.78;;;14.00;99.90;;;;;;4989055;28;20058;-76
2022/05/23 05:15:02;;;;;;;5.70;3.83;;;14.00;99.90;;;;;;5000798;28;20043;-78
2022/05/23 05:17:28;;;;;;;6.43;3.90;;;14.10;99.90;;;;;;5013987;28;20042;-78
2022/05/23 05:19:54;;;;;;;6.03;3.53;;;14.20;99.90;;;;;;5013519;28;20086;-78
2022/05/23 05:22:20;;;;;;;5.78;3.65;;;14.10;99.90;;;;;;5015036;28;20527;-76
2022/05/23 05:24:46;;;;;;;5.85;3.50;;;14.20;99.90;;;;;;5013215;28;20077;-78
2022/05/23 05:27:12;;;;;;;4.90;3.90;;;14.20;99.90;;;;;;4965716;28;20042;-75
2022/05/23 05:29:38;;;;;;;4.78;3.40;;;14.20;99.90;;;;;;4965637;28;20076;-75
2022/05/23 05:32:21;;;;;;;6.18;3.63;;;14.20;99.90;;;;;;4997167;28;20050;-75
2022/05/23 05:34:59;;;;;;;6.55;3.95;;;14.20;99.90;;;;;;4998764;28;20494;-76
2022/05/23 05:37:36;;;;;;;5.35;4.15;;;14.20;99.90;;;;;;5000088;28;20121;-79
2022/05/23 05:40:04;;;;;;;5.93;3.88;;;14.20;99.90;;;;;;5001242;28;20085;-77
2022/05/23 05:42:35;;;;;;;5.35;3.80;;;14.30;99.90;;;;;;4991518;28;20053;-77
2022/05/23 05:45:23;;;;;;;6.00;3.63;;;14.40;99.90;;;;;;5000529;28;20050;-76
2022/05/23 05:47:50;;;;;;;6.60;3.97;;;14.60;99.90;;;;;;5001419;28;20057;-75
2022/05/23 05:50:28;;;;;;;5.13;3.65;;;14.70;99.90;;;;;;4999934;28;20133;-79
2022/05/23 05:52:57;;;;;;;5.75;3.92;;;14.80;99.90;;;;;;5001315;28;20070;-77
2022/05/23 05:55:23;;;;;;;6.93;3.65;;;15.00;99.90;;;;;;5000610;28;20180;-80
2022/05/23 05:57:49;;;;;;;5.43;4.10;;;15.10;99.90;;;;;;5001012;28;20462;-75
2022/05/23 06:00:15;;;;;;;5.50;3.83;;;15.20;99.90;;;;;;5000890;28;20494;-76
2022/05/23 06:02:41;;;;;;;6.90;3.75;;;15.30;99.90;;;;;;5000026;28;20581;-75
2022/05/23 06:05:07;;;;;;;5.05;3.90;;;15.40;99.90;;;;;;5000844;28;20077;-78
2022/05/23 06:12:58;;;;;;;5.97;3.65;;;15.50;99.90;;;;;;5000052;28;20061;-75
2022/05/23 06:15:24;;;;;;;7.93;4.53;;;15.60;99.90;;;;;;4984633;28;20054;-77
2022/05/23 06:17:51;;;;;;;6.38;3.78;;;15.60;99.90;;;;;;5012071;28;20038;-76
2022/05/23 06:20:18;;;;;;;5.75;4.07;;;15.60;99.90;;;;;;4990319;28;20077;-77
2022/05/23 06:22:44;;;;;;;7.25;3.85;;;15.70;99.90;;;;;;5012565;28;20047;-77
2022/05/23 06:25:11;;;;;;;6.28;4.45;;;15.80;99.90;;;;;;4998813;28;20053;-77
2022/05/23 06:27:37;;;;;;;6.40;4.43;;;15.90;99.90;;;;;;4998443;28;20050;-74
2022/05/23 06:30:06;;;;;;;6.15;4.00;;;16.00;99.90;;;;;;4998990;28;20081;-77
2022/05/23 06:32:32;;;;;;;5.78;3.78;;;16.10;99.90;;;;;;4998210;28;20050;-76
2022/05/23 06:34:58;;;;;;;6.43;3.80;;;16.20;99.90;;;;;;4998988;28;20751;-75
2022/05/23 06:37:25;;;;;;;5.57;4.55;;;16.40;99.90;;;;;;4998832;28;20062;-77
2022/05/23 06:39:50;;;;;;;5.72;3.95;;;16.50;99.90;;;;;;4999034;28;20090;-75
2022/05/23 06:42:16;;;;;;;5.80;4.50;;;16.60;99.90;;;;;;4984688;28;20058;-77
2022/05/23 06:44:42;;;;;;;5.53;3.95;;;16.70;99.90;;;;;;4995657;28;20071;-80
2022/05/23 06:47:08;;;;;;;7.07;4.15;;;16.70;99.90;;;;;;4997127;28;20061;-76
2022/05/23 06:49:34;;;;;;;6.15;3.80;;;16.80;99.90;;;;;;4998359;28;20069;-79
2022/05/23 06:51:59;;;;;;;5.22;3.95;;;16.80;99.90;;;;;;5001783;28;20070;-78
2022/05/23 06:54:25;;;;;;;5.03;3.83;;;16.90;99.90;;;;;;5019323;28;20090;-78
2022/05/23 06:56:51;;;;;;;7.57;4.35;;;17.00;99.90;;;;;;5002047;28;20502;-76
2022/05/23 06:59:18;;;;;;;5.70;3.90;;;17.10;99.90;;;;;;5002186;28;20045;-80
2022/05/23 07:01:46;;;;;;;5.20;4.03;;;17.20;99.90;;;;;;4984732;28;20038;-75
2022/05/23 07:04:11;;;;;;;4.72;3.72;;;17.30;99.90;;;;;;5018203;28;20042;-75
2022/05/23 07:12:19;;;;;;;5.93;3.70;;;17.50;99.90;;;;;;5019268;28;20069;-76
2022/05/23 07:12:19;;;;;;;4.53;3.85;;;17.50;99.90;;;;;;5001775;28;20053;-75
2022/05/23 07:14:45;;;;;;;7.25;4.10;;;17.60;99.90;;;;;;5001068;28;20068;-78
2022/05/23 07:17:11;;;;;;;5.75;4.03;;;17.60;99.90;;;;;;4992923;28;20043;-79
2022/05/23 07:19:39;;;;;;;5.95;4.15;;;17.60;99.90;;;;;;4984486;28;20047;-77
2022/05/23 07:22:05;;;;;;;5.70;3.88;;;17.70;99.90;;;;;;4996418;28;20459;-77
2022/05/23 07:24:31;;;;;;;6.97;5.00;;;17.80;99.90;;;;;;4984591;28;20094;-74
2022/05/23 07:26:58;;;;;;;6.45;4.35;;;17.90;99.90;;;;;;4981951;28;20051;-76
2022/05/23 07:29:24;;;;;;;5.20;3.72;;;18.10;99.90;;;;;;4983894;28;20062;-79
2022/05/23 07:31:51;;;;;;;5.32;3.78;;;18.20;99.90;;;;;;4982689;28;20749;-78
2022/05/23 07:34:18;;;;;;;6.25;3.50;;;18.40;99.90;;;;;;4984666;28;20081;-76
2022/05/23 07:36:44;;;;;;;6.25;3.92;;;18.50;99.90;;;;;;4981624;28;20042;-78
2022/05/23 07:39:11;;;;;;;7.03;4.07;;;18.70;99.90;;;;;;4993125;28;20133;-78
2022/05/23 07:41:41;;;;;;;6.13;4.10;;;18.80;99.90;;;;;;4990432;28;20077;-76
2022/05/23 07:44:09;;;;;;;6.05;3.58;;;18.80;99.90;;;;;;4997058;28;20047;-78
2022/05/23 07:46:35;;;;;;;7.03;4.20;;;18.80;99.90;;;;;;4980058;28;20043;-79
2022/05/23 07:49:01;;;;;;;6.15;3.58;;;18.90;99.90;;;;;;5002343;28;20042;-78
2022/05/23 07:51:30;;;;;;;5.65;3.83;;;19.00;99.90;;;;;;4997667;28;20050;-74
2022/05/23 08:02:11;;;;;;;5.40;3.90;;;19.30;99.90;;;;;;4989585;28;20105;-76
2022/05/23 08:04:38;;;;;;;7.00;3.83;;;19.40;99.90;;;;;;4981655;28;20046;-73
2022/05/23 08:07:04;;;;;;;6.07;3.88;;;19.50;99.90;;;;;;4986839;28;20050;-76
2022/05/23 08:09:29;;;;;;;5.10;3.63;;;19.60;99.90;;;;;;4967632;28;20116;-77
2022/05/23 08:11:55;;;;;;;6.13;3.40;;;19.80;99.90;;;;;;4979363;28;20137;-76
2022/05/23 08:14:22;;;;;;;7.15;3.72;;;19.90;99.90;;;;;;4985434;28;20050;-78
2022/05/23 08:16:49;;;;;;;5.43;3.97;;;20.00;99.90;;;;;;5008041;28;20047;-76
2022/05/23 08:19:15;;;;;;;4.35;3.42;;;20.00;99.90;;;;;;4979449;28;20038;-77
2022/05/23 08:21:50;;;;;;;5.80;4.05;;;20.10;99.90;;;;;;5012565;28;20057;-78
2022/05/23 08:24:17;;;;;;;6.68;3.75;;;20.20;99.90;;;;;;4994161;28;20050;-76
2022/05/23 08:26:43;;;;;;;6.55;3.88;;;20.20;99.90;;;;;;4989955;28;20053;-75
2022/05/23 08:29:09;;;;;;;6.20;3.70;;;20.30;99.90;;;;;;4995088;28;20049;-80
2022/05/23 08:31:36;;;;;;;6.10;3.72;;;20.30;99.90;;;;;;5012069;28;20062;-80
2022/05/23 08:34:02;;;;;;;7.35;3.35;;;20.50;99.90;;;;;;4997973;28;20081;-77
2022/05/23 08:36:27;;;;;;;6.70;3.35;;;20.50;99.90;;;;;;4984511;28;20055;-75
2022/05/23 08:38:53;;;;;;;6.13;3.83;;;20.70;99.90;;;;;;5012703;28;20047;-73
2022/05/23 08:41:26;;;;;;;6.68;3.90;;;20.80;99.90;;;;;;4975746;28;20046;-75
2022/05/23 08:44:06;;;;;;;6.72;3.80;;;20.80;99.90;;;;;;4980470;28;20042;-78
2022/05/23 08:46:57;;;;;;;5.55;4.10;;;20.90;99.90;;;;;;5011229;28;20102;-75
2022/05/23 08:49:49;;;;;;;5.00;3.58;;;21.00;99.90;;;;;;5004855;28;20057;-77
2022/05/23 08:52:33;;;;;;;4.35;3.08;;;21.00;99.90;;;;;;4991739;28;20098;-78
2022/05/23 08:55:15;;;;;;;4.97;3.20;;;21.00;99.90;;;;;;5010992;28;20105;-77
2022/05/23 08:58:16;;;;;;;5.95;3.83;;;21.00;99.90;;;;;;4992092;28;20050;-75
2022/05/23 09:00:47;;;;;;;4.97;2.97;;;21.10;99.90;;;;;;5008478;28;20060;-76
2022/05/23 09:03:32;;;;;;;5.22;3.10;;;21.20;99.90;;;;;;4995120;28;20043;-77
2022/05/23 09:06:00;;;;;;;5.35;3.30;;;21.30;99.90;;;;;;5007023;28;20042;-76
2022/05/23 09:08:32;;;;;;;5.07;3.40;;;21.30;99.90;;;;;;4982606;28;20058;-74
2022/05/23 09:11:13;;;;;;;6.07;3.63;;;21.50;99.90;;;;;;4994203;28;20150;-76
2022/05/23 09:13:40;;;;;;;5.70;3.10;;;21.50;99.90;;;;;;4996905;28;20054;-78
2022/05/23 09:16:09;;;;;;;7.80;3.05;;;21.60;99.90;;;;;;5004310;28;20114;-75
2022/05/23 09:18:56;;;;;;;4.20;2.65;;;21.70;99.90;;;;;;5011120;28;20047;-78
2022/05/23 09:22:12;;;;;;;5.45;3.30;;;21.70;99.90;;;;;;5012144;28;20508;-78
2022/05/23 09:24:08;;;;;;;5.82;4.13;;;21.80;99.90;;;;;;4986694;28;20061;-76
2022/05/23 09:26:33;;;;;;;5.03;3.60;;;21.80;99.90;;;;;;4985314;28;20053;-76
2022/05/23 09:29:00;;;;;;;5.22;3.25;;;21.80;99.90;;;;;;4994399;28;20050;-75
2022/05/23 09:31:47;;;;;;;5.57;3.78;;;21.90;99.90;;;;;;5010881;28;20509;-75
2022/05/23 09:34:44;;;;;;;4.75;3.38;;;21.90;99.90;;;;;;4979572;28;20042;-76
2022/05/23 09:37:38;;;;;;;5.70;3.40;;;22.00;99.90;;;;;;4999159;28;20047;-75
2022/05/23 09:40:09;;;;;;;5.63;3.20;;;22.00;99.90;;;;;;4995907;28;20061;-77
2022/05/23 09:48:16;;;;;;;6.68;3.40;;;22.30;99.90;;;;;;5003893;28;20114;-77
2022/05/23 09:50:52;;;;;;;4.40;2.63;;;22.50;99.90;;;;;;5010245;28;20062;-75
2022/05/23 09:53:24;;;;;;;4.72;2.90;;;22.60;99.90;;;;;;4969275;28;20081;-74
2022/05/23 09:55:51;;;;;;;4.05;2.75;;;22.70;99.90;;;;;;5000532;28;20057;-77
2022/05/23 09:58:37;;;;;;;3.42;2.67;;;22.70;99.90;;;;;;4972710;28;20049;-77
2022/05/23 10:01:10;;;;;;;5.32;2.85;;;22.70;99.90;;;;;;4993118;28;20050;-74
2022/05/23 10:03:46;;;;;;;4.70;2.65;;;22.60;99.90;;;;;;4997680;28;20073;-76
2022/05/23 10:06:12;;;;;;;4.63;2.65;;;22.50;99.90;;;;;;4982289;28;20054;-75
2022/05/23 10:08:39;;;;;;;4.05;2.80;;;22.40;99.90;;;;;;4994469;28;20049;-76
2022/05/23 10:11:26;;;;;;;4.22;2.60;;;22.40;99.90;;;;;;4977876;28;20097;-75
2022/05/23 10:13:58;;;;;;;3.50;2.70;;;22.40;99.90;;;;;;4986443;28;20060;-77
2022/05/23 10:16:42;;;;;;;4.65;2.53;;;22.40;99.90;;;;;;4979363;28;20047;-73
2022/05/23 10:19:10;;;;;;;4.55;2.22;;;22.40;99.90;;;;;;5001858;28;20046;-76
2022/05/23 10:21:43;;;;;;;3.30;2.33;;;22.50;99.90;;;;;;5010835;28;20131;-72
2022/05/23 10:24:14;;;;;;;4.10;2.30;;;22.50;99.90;;;;;;4993111;28;20042;-78
2022/05/23 10:26:49;;;;;;;4.63;1.90;;;22.50;99.90;;;;;;5011399;28;20053;-76
2022/05/23 10:29:27;;;;;;;5.20;2.63;;;22.60;99.90;;;;;;4999405;28;20851;-77
2022/05/23 10:32:09;;;;;;;6.30;2.60;;;22.70;99.90;;;;;;4998468;28;20038;-75
2022/05/23 10:34:49;;;;;;;5.43;2.30;;;22.80;99.90;;;;;;4995067;28;20054;-77
2022/05/23 10:37:24;;;;;;;4.65;2.38;;;22.90;99.90;;;;;;5013843;28;20114;-76
2022/05/23 10:42:55;;;;;;;5.03;2.55;;;23.10;99.90;;;;;;5012119;28;20474;-76
2022/05/23 10:45:27;;;;;;;3.78;2.05;;;23.10;99.90;;;;;;5010938;28;20051;-73
2022/05/23 10:48:10;;;;;;;4.78;1.92;;;23.20;99.90;;;;;;5015758;28;20046;-75
2022/05/23 10:50:54;;;;;;;3.85;2.00;;;23.30;99.90;;;;;;5000638;28;20042;-74
2022/05/23 10:53:46;;;;;;;4.10;2.30;;;23.30;99.90;;;;;;4981406;28;20062;-76
2022/05/23 10:56:14;;;;;;;4.55;2.40;;;23.30;99.90;;;;;;5010952;28;20263;-74
2022/05/23 10:58:48;;;;;;;3.25;2.20;;;23.30;99.90;;;;;;5012801;28;20093;-77
2022/05/23 11:01:55;;;;;;;2.70;1.95;;;23.40;99.90;;;;;;5000792;28;20051;-75
2022/05/23 11:04:34;;;;;;;3.00;2.17;;;23.40;99.90;;;;;;4931240;29;20091;-78
2022/05/23 11:07:15;;;;;;;4.30;2.63;;;23.40;99.90;;;;;;4971707;28;20119;-75
2022/05/23 11:10:01;;;;;;;3.20;2.08;;;23.40;99.90;;;;;;5014482;28;20042;-76
2022/05/23 11:12:48;;;;;;;4.53;2.22;;;23.60;99.90;;;;;;4974416;28;20063;-73
2022/05/23 11:15:51;;;;;;;3.35;2.20;;;23.50;99.90;;;;;;4968098;28;20528;-77
2022/05/23 11:18:35;;;;;;;4.38;2.53;;;23.50;99.90;;;;;;4982031;28;20110;-75
2022/05/23 11:21:07;;;;;;;3.63;2.13;;;23.50;99.90;;;;;;5013315;28;20118;-76
2022/05/23 11:23:42;;;;;;;4.45;2.10;;;23.60;99.90;;;;;;4996655;28;20081;-80
2022/05/23 11:26:30;;;;;;;3.53;2.28;;;23.60;99.90;;;;;;5013165;28;20054;-76
2022/05/23 11:34:34;;;;;;;3.70;2.20;;;23.30;99.90;;;;;;5003906;28;20055;-79
2022/05/23 11:37:42;;;;;;;7.35;2.38;;;23.20;99.90;;;;;;4996344;28;20039;-73
2022/05/23 11:40:01;;;;;;;2.60;1.90;;;23.20;99.90;;;;;;4994822;28;20562;-74
2022/05/23 11:42:29;;;;;;;3.30;2.10;;;23.10;99.90;;;;;;4996176;28;20074;-75
2022/05/23 11:47:54;;;;;;;3.90;2.05;;;23.20;99.90;;;;;;5009871;28;20051;-76
2022/05/23 11:50:25;;;;;;;5.63;2.13;;;23.30;99.90;;;;;;5003972;28;20053;-79
2022/05/23 11:53:06;;;;;;;3.97;1.80;;;23.40;99.90;;;;;;4998028;28;20049;-75
2022/05/23 11:55:50;;;;;;;4.20;1.83;;;23.50;99.90;;;;;;5010191;28;20421;-78
2022/05/23 11:58:26;;;;;;;4.47;1.90;;;23.70;99.90;;;;;;4999384;28;20505;-75
2022/05/23 12:01:05;;;;;;;3.33;1.95;;;23.80;99.90;;;;;;4986731;28;20403;-77
2022/05/23 12:03:49;;;;;;;3.13;2.00;;;23.70;99.90;;;;;;5012792;28;20059;-78
2022/05/23 12:06:24;;;;;;;2.78;1.83;;;23.80;99.90;;;;;;4992393;28;20106;-76
2022/05/23 12:09:05;;;;;;;3.92;2.17;;;23.80;99.90;;;;;;5000566;28;20056;-77
2022/05/23 12:11:32;;;;;;;4.38;1.95;;;23.80;99.90;;;;;;4999095;28;20046;-75
2022/05/23 12:14:17;;;;;;;3.15;1.90;;;23.70;99.90;;;;;;4970786;28;20494;-75
2022/05/23 12:17:05;;;;;;;3.95;2.35;;;23.70;99.90;;;;;;5001519;28;20047;-77
2022/05/23 12:19:40;;;;;;;4.53;2.33;;;23.70;99.90;;;;;;4990325;28;20062;-78
2022/05/23 12:22:29;;;;;;;4.45;2.20;;;23.80;99.90;;;;;;4982633;28;20406;-83
2022/05/23 12:25:16;;;;;;;3.72;2.17;;;23.90;99.90;;;;;;4994337;28;20133;-83
2022/05/23 12:27:45;;;;;;;5.35;2.55;;;23.90;99.90;;;;;;5011005;28;20399;-80
2022/05/23 12:30:17;;;;;;;3.35;2.42;;;24.00;99.90;;;;;;5012923;28;20059;-80
2022/05/23 12:32:58;;;;;;;3.70;2.40;;;24.10;99.90;;;;;;4995918;28;20313;-80
2022/05/23 12:35:48;;;;;;;4.40;2.40;;;24.10;99.90;;;;;;4995545;28;20085;-82
2022/05/23 12:38:29;;;;;;;3.72;2.58;;;24.10;99.90;;;;;;5011831;28;20051;-78
2022/05/23 12:41:07;;;;;;;3.75;2.30;;;24.00;99.90;;;;;;4996994;28;20046;-82
2022/05/23 12:44:03;;;;;;;5.28;2.25;;;23.90;99.90;;;;;;4982396;28;20055;-77
2022/05/23 12:46:29;;;;;;;3.85;2.55;;;23.90;99.90;;;;;;4995554;28;20050;-79
2022/05/23 12:49:35;;;;;;;2.95;2.20;;;23.80;99.90;;;;;;5012436;28;20038;-80
2022/05/23 12:52:35;;;;;;;5.40;2.63;;;23.70;99.90;;;;;;5011978;28;20058;-77
2022/05/23 12:55:21;;;;;;;4.13;2.40;;;23.60;99.90;;;;;;5011836;28;20094;-77
2022/05/23 12:57:59;;;;;;;4.53;2.40;;;23.50;99.90;;;;;;4995325;28;20443;-81
2022/05/23 13:00:35;;;;;;;4.63;2.25;;;23.40;99.90;;;;;;4990586;28;20101;-75
2022/05/23 13:03:26;;;;;;;2.90;2.45;;;23.40;99.90;;;;;;4998018;28;20077;-79
2022/05/23 13:06:24;;;;;;;4.57;2.33;;;23.50;99.90;;;;;;4995311;28;20046;-80
2022/05/23 13:08:54;;;;;;;2.80;2.28;;;23.50;99.90;;;;;;4987879;28;20081;-75
2022/05/23 13:11:43;;;;;;;3.45;2.10;;;23.50;99.90;;;;;;4981261;28;20118;-75
2022/05/23 13:14:10;;;;;;;3.75;2.22;;;23.50;99.90;;;;;;4963609;28;20082;-78
2022/05/23 13:16:38;;;;;;;4.10;2.20;;;23.40;99.90;;;;;;4997441;28;20576;-80
2022/05/23 13:22:05;;;;;;;3.05;2.00;;;23.40;99.90;;;;;;5010800;28;20054;-76
2022/05/23 13:24:54;;;;;;;3.63;2.17;;;23.30;99.90;;;;;;4967260;28;20070;-77
2022/05/23 13:27:33;;;;;;;4.30;2.25;;;23.30;99.90;;;;;;4944470;28;20051;-76
2022/05/23 13:30:34;;;;;;;3.53;1.88;;;23.30;99.90;;;;;;4988326;28;20049;-76
2022/05/23 13:33:01;;;;;;;3.78;2.20;;;23.20;99.90;;;;;;4983553;28;20055;-77
2022/05/23 13:35:28;;;;;;;3.67;2.20;;;23.20;99.90;;;;;;4994118;28;20047;-75
2022/05/23 13:37:54;;;;;;;4.75;2.30;;;23.20;99.90;;;;;;4979484;28;20055;-74
2022/05/23 13:40:26;;;;;;;3.50;2.25;;;23.20;99.90;;;;;;4984076;28;20041;-75
2022/05/23 13:43:13;;;;;;;4.28;2.42;;;23.20;99.90;;;;;;4988827;28;20054;-75
2022/05/23 13:45:40;;;;;;;5.05;2.33;;;23.20;99.90;;;;;;4980970;28;20055;-76
2022/05/23 13:48:16;;;;;;;3.70;2.08;;;23.30;99.90;;;;;;5012658;28;20068;-78
2022/05/23 13:50:48;;;;;;;3.25;2.08;;;23.40;99.90;;;;;;5013716;28;20418;-77
2022/05/23 13:53:20;;;;;;;4.25;2.60;;;23.40;99.90;;;;;;4997858;28;20046;-75
2022/05/23 13:55:50;;;;;;;3.30;2.42;;;23.50;99.90;;;;;;4979988;28;20122;-75
2022/05/23 13:58:18;;;;;;;5.45;3.00;;;23.40;99.90;;;;;;4994291;28;20502;-77
2022/05/23 14:00:57;;;;;;;3.50;2.50;;;23.40;99.90;;;;;;5010830;28;20070;-76
2022/05/23 14:03:37;;;;;;;4.20;2.53;;;23.40;99.90;;;;;;4993301;28;20061;-76
2022/05/23 14:06:07;;;;;;;3.17;2.35;;;23.40;99.90;;;;;;4995546;28;20055;-77